Time;durP1;ratioP1;P1;durP2;ratioP2;P2;SDS_P1;SDS_P2;PMS_P1;PMS_P2;Temp;Humidity;BMP_temperature;BMP_pressure;BME280_temperature;BME280_humidity;BME280_pressure;Samples;Min_cycle;Max_cycle;Signal;HPM_P1;HPM_P2
2022/11/02 00:02:25;;;;;;;13.60;12.43;;;14.00;99.90;;;;;;5043767;28;20743;-68
2022/11/02 00:04:52;;;;;;;13.50;12.30;;;14.00;99.90;;;;;;5046715;28;20508;-68
2022/11/02 00:07:20;;;;;;;14.10;11.80;;;14.00;99.90;;;;;;5046818;28;20459;-70
2022/11/02 00:09:47;;;;;;;13.20;11.90;;;14.00;99.90;;;;;;5047047;28;20471;-70
2022/11/02 00:12:14;;;;;;;13.30;12.10;;;13.90;99.90;;;;;;5046433;28;20471;-70
2022/11/02 00:14:41;;;;;;;16.33;12.37;;;13.80;99.90;;;;;;5044465;28;20851;-68
2022/11/02 00:17:08;;;;;;;13.80;12.37;;;13.90;99.90;;;;;;5044683;28;20472;-69
2022/11/02 00:19:36;;;;;;;13.30;12.00;;;13.90;99.90;;;;;;5045252;28;20467;-68
2022/11/02 00:22:03;;;;;;;12.90;11.70;;;14.00;99.90;;;;;;5046748;28;20982;-69
2022/11/02 00:24:31;;;;;;;13.40;12.33;;;14.10;99.90;;;;;;5046859;28;20997;-70
2022/11/02 00:26:59;;;;;;;17.67;12.83;;;14.20;99.90;;;;;;5047410;28;20513;-68
2022/11/02 00:29:27;;;;;;;13.57;12.23;;;14.20;99.90;;;;;;5044605;28;20888;-69
2022/11/02 00:31:54;;;;;;;13.23;12.40;;;14.20;99.90;;;;;;5045914;28;20476;-68
2022/11/02 00:34:21;;;;;;;14.60;13.03;;;14.20;99.90;;;;;;5044533;28;20460;-68
2022/11/02 00:36:49;;;;;;;13.83;12.73;;;14.20;99.90;;;;;;5046575;28;20484;-69
2022/11/02 00:39:16;;;;;;;14.03;12.23;;;14.10;99.90;;;;;;5047991;28;20507;-68
2022/11/02 00:41:44;;;;;;;12.60;11.70;;;14.10;99.90;;;;;;5044440;28;20463;-68
2022/11/02 00:44:11;;;;;;;12.67;11.33;;;14.00;99.90;;;;;;5044404;28;20478;-68
2022/11/02 00:46:39;;;;;;;16.93;12.87;;;13.90;99.90;;;;;;5045159;28;20464;-68
2022/11/02 00:49:06;;;;;;;13.37;12.20;;;13.80;99.90;;;;;;5046252;28;20534;-68
2022/11/02 00:51:33;;;;;;;13.37;11.50;;;13.60;99.90;;;;;;5046312;28;20868;-68
2022/11/02 00:54:01;;;;;;;15.07;12.53;;;13.60;99.90;;;;;;5047837;28;20530;-68
2022/11/02 00:56:28;;;;;;;13.17;11.80;;;13.50;99.90;;;;;;5044054;28;20616;-68
2022/11/02 00:58:55;;;;;;;17.30;12.77;;;13.50;99.90;;;;;;5045493;28;20463;-69
2022/11/02 01:01:21;;;;;;;16.80;12.13;;;13.40;99.90;;;;;;5044885;28;20542;-69
2022/11/02 01:03:49;;;;;;;14.93;12.37;;;13.40;99.90;;;;;;5046111;28;20864;-68
2022/11/02 01:06:16;;;;;;;12.40;11.50;;;13.40;99.90;;;;;;5046992;28;20492;-68
2022/11/02 01:08:43;;;;;;;13.67;12.30;;;13.30;99.90;;;;;;5045224;28;20467;-69
2022/11/02 01:11:17;;;;;;;23.23;11.93;;;13.30;99.90;;;;;;5045490;28;20466;-68
2022/11/02 01:13:44;;;;;;;12.33;11.37;;;13.30;99.90;;;;;;5044004;28;20482;-68
2022/11/02 01:16:11;;;;;;;14.93;10.87;;;13.20;99.90;;;;;;5045268;28;20507;-67
2022/11/02 01:18:38;;;;;;;13.33;12.10;;;13.20;99.90;;;;;;5045871;28;20464;-69
2022/11/02 01:21:05;;;;;;;12.67;11.50;;;13.20;99.90;;;;;;5048033;28;20460;-69
2022/11/02 01:23:33;;;;;;;12.97;11.97;;;13.30;99.90;;;;;;5043844;28;20529;-68
2022/11/02 01:26:03;;;;;;;14.20;12.27;;;13.30;99.90;;;;;;5045444;28;20466;-68
2022/11/02 01:28:32;;;;;;;18.13;11.60;;;13.30;99.90;;;;;;5045659;28;20578;-69
2022/11/02 01:30:59;;;;;;;12.10;11.20;;;13.40;99.90;;;;;;5045447;28;20548;-68
2022/11/02 01:33:26;;;;;;;15.97;14.40;;;13.50;99.90;;;;;;5043363;28;20533;-68
2022/11/02 01:35:53;;;;;;;13.57;12.13;;;13.60;99.90;;;;;;5045531;28;20554;-69
2022/11/02 01:38:20;;;;;;;16.53;12.60;;;13.60;99.90;;;;;;5046592;28;20521;-69
2022/11/02 01:40:48;;;;;;;16.00;11.70;;;13.60;99.90;;;;;;5042904;28;21008;-68
2022/11/02 01:43:22;;;;;;;12.77;11.97;;;13.50;99.90;;;;;;5045717;28;20491;-69
2022/11/02 01:45:55;;;;;;;17.10;11.80;;;13.40;99.90;;;;;;5045119;28;21276;-68
2022/11/02 01:48:28;;;;;;;12.83;11.80;;;13.30;99.90;;;;;;5043065;28;20468;-68
2022/11/02 01:50:55;;;;;;;12.90;11.60;;;13.20;99.90;;;;;;5046760;28;20958;-68
2022/11/02 01:53:22;;;;;;;13.17;11.80;;;13.20;99.90;;;;;;5040868;28;20774;-69
2022/11/02 01:55:51;;;;;;;12.67;11.67;;;13.10;99.90;;;;;;5044482;28;20507;-68
2022/11/02 01:58:18;;;;;;;20.07;11.50;;;13.00;99.90;;;;;;5045084;28;20464;-69
2022/11/02 02:00:47;;;;;;;12.83;11.53;;;13.00;99.90;;;;;;5040734;28;20828;-68
2022/11/02 02:03:18;;;;;;;12.40;11.20;;;12.90;99.90;;;;;;5041433;28;20556;-68
2022/11/02 02:05:49;;;;;;;12.23;11.10;;;12.90;99.90;;;;;;5043546;28;20472;-68
2022/11/02 02:08:18;;;;;;;15.73;11.30;;;12.90;99.90;;;;;;5043248;28;20865;-68
2022/11/02 02:10:46;;;;;;;12.57;11.40;;;13.00;99.90;;;;;;5045166;28;20464;-69
2022/11/02 02:13:13;;;;;;;17.37;11.67;;;13.00;99.90;;;;;;5043187;28;20753;-69
2022/11/02 02:15:46;;;;;;;16.70;11.20;;;13.10;99.90;;;;;;5046153;28;20548;-68
2022/11/02 02:18:20;;;;;;;12.87;11.50;;;13.10;99.90;;;;;;5044942;28;20474;-68
2022/11/02 02:21:01;;;;;;;13.10;11.80;;;13.00;99.90;;;;;;5044452;28;20467;-68
2022/11/02 02:23:44;;;;;;;16.13;11.27;;;13.00;99.90;;;;;;5044386;28;20463;-68
2022/11/02 02:26:40;;;;;;;18.57;11.00;;;12.90;99.90;;;;;;5043325;28;20546;-69
2022/11/02 02:29:14;;;;;;;13.23;10.50;;;12.90;99.90;;;;;;5044343;28;20491;-68
2022/11/02 02:31:49;;;;;;;11.70;10.70;;;12.90;99.90;;;;;;5044432;28;20487;-68
2022/11/02 02:34:19;;;;;;;11.37;10.37;;;12.90;99.90;;;;;;5044807;28;20489;-69
2022/11/02 02:36:50;;;;;;;13.43;11.60;;;12.90;99.90;;;;;;5045341;28;20494;-69
2022/11/02 02:39:24;;;;;;;17.10;11.00;;;12.90;99.90;;;;;;5043126;28;20463;-69
2022/11/02 02:41:58;;;;;;;13.00;11.27;;;12.90;99.90;;;;;;5044492;28;20455;-68
2022/11/02 02:44:30;;;;;;;12.33;11.13;;;12.80;99.90;;;;;;5041654;28;20864;-69
2022/11/02 02:47:00;;;;;;;13.13;10.83;;;12.80;99.90;;;;;;5041978;28;20870;-69
2022/11/02 02:49:34;;;;;;;11.53;10.60;;;12.80;99.90;;;;;;5044086;28;20468;-69
2022/11/02 02:52:02;;;;;;;10.47;9.73;;;12.80;99.90;;;;;;5045173;28;20540;-68
2022/11/02 02:54:34;;;;;;;16.70;10.30;;;12.70;99.90;;;;;;5048597;28;20558;-68
2022/11/02 02:57:06;;;;;;;21.10;10.87;;;12.70;99.90;;;;;;5048255;28;20495;-68
2022/11/02 02:59:39;;;;;;;17.60;10.80;;;12.70;99.90;;;;;;5048723;28;20467;-69
2022/11/02 03:02:08;;;;;;;13.73;12.37;;;12.70;99.90;;;;;;5048411;28;20554;-68
2022/11/02 03:04:36;;;;;;;11.10;9.90;;;12.70;99.90;;;;;;5048159;28;20989;-68
2022/11/02 03:07:04;;;;;;;13.20;11.10;;;12.80;99.90;;;;;;5048215;28;20472;-69
2022/11/02 03:09:36;;;;;;;11.47;10.47;;;12.80;99.90;;;;;;5048173;28;20958;-69
2022/11/02 03:12:16;;;;;;;11.60;10.53;;;12.80;99.90;;;;;;5045193;28;21065;-68
2022/11/02 03:14:58;;;;;;;11.10;10.10;;;12.70;99.90;;;;;;5048064;28;20468;-68
2022/11/02 03:17:32;;;;;;;13.23;11.23;;;12.70;99.90;;;;;;5044577;28;20578;-69
2022/11/02 03:20:07;;;;;;;13.23;10.73;;;12.60;99.90;;;;;;5048257;28;20447;-68
2022/11/02 03:22:44;;;;;;;11.33;10.27;;;12.60;99.90;;;;;;5049262;28;20465;-69
2022/11/02 03:25:16;;;;;;;18.70;11.00;;;12.60;99.90;;;;;;5047934;28;20562;-67
2022/11/02 03:27:51;;;;;;;12.83;10.50;;;12.60;99.90;;;;;;5047766;28;20524;-70
2022/11/02 03:30:21;;;;;;;12.37;11.07;;;12.60;99.90;;;;;;5044713;28;20558;-68
2022/11/02 03:32:54;;;;;;;11.03;10.10;;;12.60;99.90;;;;;;5047560;28;20480;-68
2022/11/02 03:35:25;;;;;;;11.43;10.30;;;12.70;99.90;;;;;;5045152;28;20896;-68
2022/11/02 03:37:59;;;;;;;11.90;10.73;;;12.70;99.90;;;;;;5044917;28;20881;-68
2022/11/02 03:40:29;;;;;;;11.83;10.80;;;12.70;99.90;;;;;;5047417;28;20554;-70
2022/11/02 03:42:58;;;;;;;12.33;10.50;;;12.80;99.90;;;;;;5047303;28;20950;-69
2022/11/02 03:45:30;;;;;;;12.00;10.93;;;12.70;99.90;;;;;;5049952;28;20467;-68
2022/11/02 03:48:02;;;;;;;11.97;10.70;;;12.70;99.90;;;;;;5047598;28;20486;-68
2022/11/02 03:50:29;;;;;;;11.30;10.50;;;12.60;99.90;;;;;;5046839;28;20555;-68
2022/11/02 03:53:02;;;;;;;16.57;11.10;;;12.50;99.90;;;;;;5046941;28;20950;-67
2022/11/02 03:55:33;;;;;;;12.77;11.47;;;12.50;99.90;;;;;;5047002;28;20537;-69
2022/11/02 03:58:00;;;;;;;12.13;10.70;;;12.50;99.90;;;;;;5046925;28;20487;-69
2022/11/02 04:00:32;;;;;;;11.43;10.47;;;12.50;99.90;;;;;;5045723;28;20576;-69
2022/11/02 04:03:02;;;;;;;10.97;10.17;;;12.50;99.90;;;;;;5047176;28;20467;-68
2022/11/02 04:05:30;;;;;;;11.80;10.80;;;12.50;99.90;;;;;;5045894;28;20468;-68
2022/11/02 04:16:09;;;;;;;11.63;10.70;;;12.40;99.90;;;;;;5047271;28;20513;-68
2022/11/02 04:21:20;;;;;;;12.37;11.17;;;12.30;99.90;;;;;;5046900;28;20447;-68
2022/11/02 04:26:34;;;;;;;13.13;10.70;;;12.30;99.90;;;;;;5017447;28;21069;-68
2022/11/02 04:29:01;;;;;;;10.90;10.00;;;12.30;99.90;;;;;;5043991;28;20891;-68
2022/11/02 04:31:29;;;;;;;14.23;9.90;;;12.30;99.90;;;;;;5045273;28;20475;-68
2022/11/02 04:33:57;;;;;;;12.00;10.77;;;12.30;99.90;;;;;;5048182;28;20482;-69
2022/11/02 04:36:25;;;;;;;14.30;11.10;;;12.20;99.90;;;;;;5046653;28;20864;-69
2022/11/02 04:38:51;;;;;;;11.33;10.10;;;12.20;99.90;;;;;;5046129;28;20467;-69
2022/11/02 04:44:05;;;;;;;13.03;10.47;;;12.20;99.90;;;;;;5044469;28;20467;-69
2022/11/02 04:46:35;;;;;;;12.37;11.23;;;12.20;99.90;;;;;;5046867;28;20551;-68
2022/11/02 04:49:02;;;;;;;13.10;11.00;;;12.20;99.90;;;;;;5044964;28;20467;-68
2022/11/02 04:51:29;;;;;;;13.40;11.03;;;12.20;99.90;;;;;;5046794;28;20832;-69
2022/11/02 04:53:58;;;;;;;12.50;11.40;;;12.30;99.90;;;;;;5045648;28;20487;-69
2022/11/02 04:56:25;;;;;;;12.17;10.80;;;12.30;99.90;;;;;;5046078;28;20485;-68
2022/11/02 04:58:54;;;;;;;12.53;11.20;;;12.20;99.90;;;;;;5045961;28;20491;-70
2022/11/02 05:01:37;;;;;;;14.07;10.93;;;12.20;99.90;;;;;;5044873;28;20533;-68
2022/11/02 05:04:04;;;;;;;13.70;12.50;;;12.20;99.90;;;;;;5038815;28;20464;-68
2022/11/02 05:06:31;;;;;;;12.90;11.60;;;12.20;99.90;;;;;;5042567;28;20466;-68
2022/11/02 05:08:58;;;;;;;12.67;11.37;;;12.20;99.90;;;;;;5040941;28;20464;-68
2022/11/02 05:11:25;;;;;;;14.50;11.87;;;12.20;99.90;;;;;;5042544;28;20463;-68
2022/11/02 05:13:52;;;;;;;12.73;11.60;;;12.20;99.90;;;;;;5044023;28;20525;-68
2022/11/02 05:16:19;;;;;;;15.90;11.73;;;12.20;99.90;;;;;;5045357;28;20834;-69
2022/11/02 05:18:48;;;;;;;17.83;12.17;;;12.10;99.90;;;;;;5044020;28;20470;-69
2022/11/02 05:21:14;;;;;;;13.20;11.97;;;12.10;99.90;;;;;;5043263;28;20468;-68
2022/11/02 05:23:41;;;;;;;13.93;12.27;;;12.10;99.90;;;;;;5041222;28;20522;-69
2022/11/02 05:26:11;;;;;;;13.57;12.17;;;12.10;99.90;;;;;;5040993;28;20890;-68
2022/11/02 05:28:37;;;;;;;13.97;12.63;;;12.10;99.90;;;;;;5045003;28;21009;-69
2022/11/02 05:31:05;;;;;;;14.13;12.20;;;12.10;99.90;;;;;;5041473;28;20522;-69
2022/11/02 05:33:32;;;;;;;12.73;11.60;;;12.10;99.90;;;;;;5047010;28;20572;-68
2022/11/02 05:36:01;;;;;;;17.63;12.70;;;12.00;99.90;;;;;;5042774;28;20452;-68
2022/11/02 05:38:28;;;;;;;15.83;12.40;;;12.10;99.90;;;;;;5041865;28;20490;-69
2022/11/02 05:40:56;;;;;;;12.97;11.87;;;12.00;99.90;;;;;;5041906;28;20460;-69
2022/11/02 05:43:23;;;;;;;13.53;12.10;;;12.00;99.90;;;;;;5049508;28;20632;-68
2022/11/02 05:45:54;;;;;;;23.50;12.17;;;12.00;99.90;;;;;;5051492;28;20527;-68
2022/11/02 05:48:21;;;;;;;13.37;11.97;;;11.90;99.90;;;;;;5041852;28;20743;-68
2022/11/02 05:50:49;;;;;;;13.97;12.40;;;11.90;99.90;;;;;;5040149;28;20471;-68
2022/11/02 05:53:18;;;;;;;14.37;12.20;;;11.80;99.90;;;;;;5044126;28;20519;-67
2022/11/02 05:55:45;;;;;;;17.57;12.37;;;11.90;99.90;;;;;;5042456;28;20552;-68
2022/11/02 05:58:11;;;;;;;12.67;11.70;;;11.90;99.90;;;;;;5043425;28;20530;-69
2022/11/02 06:00:39;;;;;;;12.57;11.47;;;11.80;99.90;;;;;;5039219;28;20466;-70
2022/11/02 06:03:06;;;;;;;16.30;12.27;;;11.80;99.90;;;;;;5041782;28;20510;-68
2022/11/02 06:05:33;;;;;;;13.67;11.67;;;11.80;99.90;;;;;;5043624;28;20456;-68
2022/11/02 06:08:01;;;;;;;17.43;11.97;;;11.80;99.90;;;;;;5043318;28;20460;-68
2022/11/02 06:10:30;;;;;;;14.33;11.87;;;11.70;99.90;;;;;;5042583;28;20472;-68
2022/11/02 06:12:58;;;;;;;15.80;11.47;;;11.70;99.90;;;;;;5043284;28;20479;-68
2022/11/02 06:15:26;;;;;;;12.30;11.10;;;11.70;99.90;;;;;;5042303;28;20459;-68
2022/11/02 06:17:54;;;;;;;13.50;11.33;;;11.80;99.90;;;;;;5043391;28;20495;-68
2022/11/02 06:20:21;;;;;;;13.30;11.93;;;11.70;99.90;;;;;;5041981;28;20478;-69
2022/11/02 06:22:49;;;;;;;13.57;12.07;;;11.70;99.90;;;;;;5044011;28;20452;-68
2022/11/02 06:25:18;;;;;;;12.97;11.30;;;11.70;99.90;;;;;;5043929;28;20467;-68
2022/11/02 06:27:53;;;;;;;13.77;12.13;;;11.70;99.90;;;;;;5040169;28;21074;-68
2022/11/02 06:30:21;;;;;;;21.10;11.40;;;11.60;99.90;;;;;;5046078;28;20470;-69
2022/11/02 06:32:49;;;;;;;12.70;11.50;;;11.60;99.90;;;;;;5046456;28;20884;-68
2022/11/02 06:35:17;;;;;;;12.40;11.40;;;11.60;99.90;;;;;;5047399;28;20467;-71
2022/11/02 06:37:43;;;;;;;14.97;10.80;;;11.60;99.90;;;;;;5048604;28;20478;-70
2022/11/02 06:40:12;;;;;;;12.70;11.40;;;11.60;99.90;;;;;;5043967;28;20874;-70
2022/11/02 06:42:40;;;;;;;19.63;11.57;;;11.70;99.90;;;;;;5045814;28;20836;-70
2022/11/02 06:45:09;;;;;;;16.57;11.23;;;11.60;99.90;;;;;;5042999;28;21023;-70
2022/11/02 06:47:37;;;;;;;15.43;11.50;;;11.60;99.90;;;;;;5045192;28;20467;-70
2022/11/02 06:50:05;;;;;;;19.20;11.67;;;11.60;99.90;;;;;;5042081;28;22441;-71
2022/11/02 06:52:33;;;;;;;16.10;11.43;;;11.60;99.90;;;;;;5043123;28;20465;-70
2022/11/02 06:55:00;;;;;;;13.27;12.07;;;11.60;99.90;;;;;;5041570;28;20470;-72
2022/11/02 06:57:28;;;;;;;13.83;12.03;;;11.60;99.90;;;;;;5045439;28;20952;-70
2022/11/02 06:59:55;;;;;;;16.30;12.20;;;11.60;99.90;;;;;;5044902;28;20474;-70
2022/11/02 07:02:23;;;;;;;12.40;11.33;;;11.70;99.90;;;;;;5046565;28;20467;-70
2022/11/02 07:04:50;;;;;;;17.60;11.70;;;11.60;99.90;;;;;;5047914;28;20460;-70
2022/11/02 07:07:17;;;;;;;12.77;11.47;;;11.70;99.90;;;;;;5045132;28;20474;-70
2022/11/02 07:09:44;;;;;;;12.17;11.03;;;11.70;99.90;;;;;;5045002;28;20648;-70
2022/11/02 07:12:12;;;;;;;13.50;11.50;;;11.70;99.90;;;;;;5044492;28;20490;-70
2022/11/02 07:14:39;;;;;;;12.40;11.23;;;11.80;99.90;;;;;;5042056;28;20458;-72
2022/11/02 07:17:06;;;;;;;13.83;12.43;;;11.70;99.90;;;;;;5049551;28;20856;-70
2022/11/02 07:19:34;;;;;;;17.17;12.33;;;11.70;99.90;;;;;;5045488;28;20471;-70
2022/11/02 07:22:00;;;;;;;13.50;12.43;;;11.70;99.90;;;;;;5045020;28;20491;-70
2022/11/02 07:24:27;;;;;;;14.83;13.20;;;11.70;99.90;;;;;;5043946;28;20763;-70
2022/11/02 07:26:54;;;;;;;14.70;13.30;;;11.80;99.90;;;;;;5043338;28;20468;-70
2022/11/02 07:29:21;;;;;;;14.67;13.13;;;11.90;99.90;;;;;;5042164;28;20487;-70
2022/11/02 07:31:48;;;;;;;13.77;12.53;;;11.90;99.90;;;;;;5048893;28;20491;-70
2022/11/02 07:34:15;;;;;;;14.83;13.40;;;12.00;99.90;;;;;;5046594;28;20901;-70
2022/11/02 07:36:44;;;;;;;16.23;14.80;;;12.00;99.90;;;;;;5044795;28;20464;-70
2022/11/02 07:39:11;;;;;;;13.30;12.20;;;12.00;99.90;;;;;;5045971;28;20492;-71
2022/11/02 07:41:39;;;;;;;13.73;12.50;;;12.00;99.90;;;;;;5044859;28;20951;-70
2022/11/02 07:44:06;;;;;;;17.87;13.00;;;12.00;99.90;;;;;;5047240;28;20464;-69
2022/11/02 07:46:33;;;;;;;16.03;12.20;;;12.00;99.90;;;;;;5046539;28;20970;-69
2022/11/02 07:49:00;;;;;;;15.93;14.10;;;12.00;99.90;;;;;;5045552;28;20471;-68
2022/11/02 07:51:27;;;;;;;14.53;13.13;;;12.10;99.90;;;;;;5044086;28;20518;-68
2022/11/02 07:53:55;;;;;;;15.43;12.30;;;12.10;99.90;;;;;;5035719;28;20460;-68
2022/11/02 07:56:22;;;;;;;14.77;12.13;;;12.10;99.90;;;;;;5046337;28;20464;-67
2022/11/02 07:58:49;;;;;;;17.53;11.93;;;12.10;99.90;;;;;;5034582;28;20509;-68
2022/11/02 08:01:31;;;;;;;16.70;12.83;;;12.20;99.90;;;;;;5041251;28;20551;-68
2022/11/02 08:03:58;;;;;;;16.20;12.60;;;12.20;99.90;;;;;;5042127;28;20467;-69
2022/11/02 08:06:25;;;;;;;14.03;12.60;;;12.20;99.90;;;;;;5044648;28;21055;-68
2022/11/02 08:08:52;;;;;;;14.33;12.73;;;12.30;99.90;;;;;;5043664;28;20907;-68
2022/11/02 08:11:20;;;;;;;14.17;12.90;;;12.30;99.90;;;;;;5043032;28;20460;-69
2022/11/02 08:13:47;;;;;;;13.57;12.67;;;12.30;99.90;;;;;;5043307;28;20463;-68
2022/11/02 08:16:14;;;;;;;13.40;12.20;;;12.30;99.90;;;;;;5042255;28;20448;-68
2022/11/02 08:18:42;;;;;;;13.87;12.57;;;12.30;99.90;;;;;;5041627;28;20982;-68
2022/11/02 08:21:09;;;;;;;14.33;12.83;;;12.30;99.90;;;;;;5041440;28;20833;-69
2022/11/02 08:23:36;;;;;;;15.00;13.43;;;12.40;99.90;;;;;;5042825;28;20886;-68
2022/11/02 08:26:03;;;;;;;23.57;13.57;;;12.40;99.90;;;;;;5041466;28;20726;-68
2022/11/02 08:28:34;;;;;;;17.67;13.17;;;12.40;99.90;;;;;;5033504;28;20493;-68
2022/11/02 08:31:01;;;;;;;17.43;13.57;;;12.40;99.90;;;;;;5028893;28;20547;-68
2022/11/02 08:33:29;;;;;;;13.83;12.70;;;12.50;99.90;;;;;;5029592;28;20480;-68
2022/11/02 08:36:02;;;;;;;13.13;12.13;;;12.50;99.90;;;;;;5027498;28;21086;-69
2022/11/02 08:38:29;;;;;;;17.83;13.77;;;12.50;99.90;;;;;;5029162;28;20491;-71
2022/11/02 08:40:57;;;;;;;18.23;13.80;;;12.50;99.90;;;;;;5029424;28;20502;-71
2022/11/02 08:43:23;;;;;;;15.67;12.73;;;12.60;99.90;;;;;;5030146;28;20460;-70
2022/11/02 08:45:52;;;;;;;15.33;13.80;;;12.60;99.90;;;;;;5029344;28;20460;-71
2022/11/02 08:48:20;;;;;;;13.83;12.73;;;12.60;99.90;;;;;;5030831;28;20468;-72
2022/11/02 08:50:49;;;;;;;14.47;13.00;;;12.70;99.90;;;;;;5029477;28;20465;-70
2022/11/02 08:53:16;;;;;;;14.33;12.90;;;12.70;99.90;;;;;;5026565;28;20821;-70
2022/11/02 08:55:43;;;;;;;14.90;13.40;;;12.70;99.90;;;;;;5024552;28;20882;-70
2022/11/02 08:58:11;;;;;;;15.70;13.23;;;12.70;99.90;;;;;;5028387;28;20489;-70
2022/11/02 09:00:38;;;;;;;14.20;12.83;;;12.70;99.90;;;;;;5032180;28;20991;-71
2022/11/02 09:03:08;;;;;;;16.40;13.50;;;12.70;99.90;;;;;;5029729;28;20478;-72
2022/11/02 09:05:36;;;;;;;18.90;14.40;;;12.80;99.90;;;;;;5031216;28;20469;-72
2022/11/02 09:08:05;;;;;;;15.43;13.37;;;12.80;99.90;;;;;;5027955;28;20468;-70
2022/11/02 09:10:34;;;;;;;17.13;13.70;;;12.90;99.90;;;;;;5021083;28;20459;-71
2022/11/02 09:13:03;;;;;;;16.10;14.03;;;12.90;99.90;;;;;;5027575;28;20471;-70
2022/11/02 09:15:30;;;;;;;14.83;13.20;;;13.00;99.90;;;;;;5027934;28;20452;-70
2022/11/02 09:17:57;;;;;;;15.93;13.47;;;13.00;99.90;;;;;;5028077;28;20922;-70
2022/11/02 09:20:27;;;;;;;17.10;14.27;;;13.00;99.90;;;;;;5025763;28;20464;-71
2022/11/02 09:22:54;;;;;;;14.93;13.80;;;13.10;99.90;;;;;;5031645;28;20465;-70
2022/11/02 09:25:21;;;;;;;17.23;13.87;;;13.20;99.90;;;;;;5026854;28;20481;-70
2022/11/02 09:27:53;;;;;;;15.20;13.93;;;13.20;99.90;;;;;;5029586;28;20533;-72
2022/11/02 09:30:20;;;;;;;15.97;14.40;;;13.20;99.90;;;;;;5030472;28;20535;-70
2022/11/02 09:32:54;;;;;;;16.27;14.50;;;13.20;99.90;;;;;;5028656;28;20481;-70
2022/11/02 09:35:21;;;;;;;32.20;15.23;;;13.20;99.90;;;;;;5032821;28;20912;-70
2022/11/02 09:37:49;;;;;;;22.07;14.00;;;13.30;99.90;;;;;;5028024;28;20543;-70
2022/11/02 09:40:20;;;;;;;15.47;13.97;;;13.30;99.90;;;;;;5031409;28;20456;-72
2022/11/02 09:43:01;;;;;;;15.13;13.67;;;13.40;99.90;;;;;;5028676;28;20471;-70
2022/11/02 09:45:29;;;;;;;16.10;14.53;;;13.30;99.90;;;;;;5032403;28;20955;-71
2022/11/02 09:48:01;;;;;;;22.40;15.00;;;13.30;99.90;;;;;;5027074;28;20500;-70
2022/11/02 09:50:42;;;;;;;16.43;14.30;;;13.40;99.90;;;;;;5022756;28;20520;-70
2022/11/02 09:53:17;;;;;;;15.63;14.03;;;13.40;99.90;;;;;;5024971;28;20965;-70
2022/11/02 09:55:52;;;;;;;16.17;14.50;;;13.50;99.90;;;;;;5029648;28;20514;-72
2022/11/02 09:58:23;;;;;;;16.77;14.97;;;13.50;99.90;;;;;;5025914;28;20480;-71
2022/11/02 10:00:55;;;;;;;17.17;15.00;;;13.60;99.90;;;;;;5026621;28;21003;-71
2022/11/02 10:03:32;;;;;;;18.03;14.83;;;13.60;99.90;;;;;;5028681;28;20472;-70
2022/11/02 10:06:04;;;;;;;15.40;14.10;;;13.60;99.90;;;;;;5025988;28;20452;-71
2022/11/02 10:08:41;;;;;;;17.57;14.87;;;13.70;99.90;;;;;;5025507;28;20828;-70
2022/11/02 10:11:26;;;;;;;15.20;13.77;;;13.70;99.90;;;;;;5028442;28;20550;-71
2022/11/02 10:13:58;;;;;;;20.47;15.17;;;13.80;99.90;;;;;;5024956;28;20467;-71
2022/11/02 10:16:30;;;;;;;21.33;15.00;;;13.80;99.90;;;;;;5027290;28;20473;-70
2022/11/02 10:18:57;;;;;;;17.07;14.77;;;13.70;99.90;;;;;;5029952;28;21058;-70
2022/11/02 10:21:28;;;;;;;16.80;15.30;;;14.00;99.90;;;;;;5028875;28;20457;-70
2022/11/02 10:24:00;;;;;;;25.50;15.40;;;14.50;99.90;;;;;;5023637;28;20468;-71
2022/11/02 10:26:29;;;;;;;16.37;14.30;;;14.90;99.90;;;;;;5028955;28;20575;-72
2022/11/02 10:28:59;;;;;;;31.33;14.90;;;15.20;99.90;;;;;;5027912;28;20491;-70
2022/11/02 10:31:29;;;;;;;16.40;14.60;;;15.60;99.90;;;;;;5026936;28;20477;-71
2022/11/02 10:33:59;;;;;;;16.37;14.77;;;15.80;99.90;;;;;;5027714;28;20517;-70
2022/11/02 10:36:44;;;;;;;20.53;14.90;;;16.00;99.90;;;;;;5029780;28;20870;-69
2022/11/02 10:39:24;;;;;;;16.03;14.83;;;16.20;99.90;;;;;;5025254;28;20492;-69
2022/11/02 10:42:04;;;;;;;16.13;14.80;;;16.60;99.90;;;;;;5028262;28;20902;-68
2022/11/02 10:44:43;;;;;;;16.53;15.03;;;16.50;99.90;;;;;;5029673;28;20491;-69
2022/11/02 10:47:15;;;;;;;16.67;14.77;;;16.60;99.90;;;;;;5030099;28;20467;-70
2022/11/02 10:50:00;;;;;;;16.23;14.80;;;16.50;99.90;;;;;;5028252;28;20566;-69
2022/11/02 10:52:33;;;;;;;15.97;14.77;;;16.60;99.90;;;;;;5028868;28;20464;-68
2022/11/02 10:55:02;;;;;;;16.87;15.13;;;16.90;99.90;;;;;;5032637;28;20999;-70
2022/11/02 10:57:32;;;;;;;17.23;15.47;;;17.10;99.90;;;;;;5028630;28;20463;-69
2022/11/02 11:00:22;;;;;;;16.87;15.13;;;17.10;99.90;;;;;;5027453;28;20853;-69
2022/11/02 11:03:06;;;;;;;21.30;15.10;;;17.00;99.90;;;;;;5027033;28;20840;-70
2022/11/02 11:05:35;;;;;;;16.60;15.20;;;17.10;99.90;;;;;;5031670;28;20464;-70
2022/11/02 11:08:03;;;;;;;16.67;15.37;;;17.20;99.90;;;;;;5032125;28;20469;-69
2022/11/02 11:10:36;;;;;;;16.77;15.30;;;17.10;99.90;;;;;;5030655;28;20796;-69
2022/11/02 11:13:07;;;;;;;17.37;15.20;;;17.40;99.90;;;;;;5027830;28;20892;-69
2022/11/02 11:15:35;;;;;;;18.57;15.10;;;17.30;99.90;;;;;;5032350;28;20465;-68
2022/11/02 11:18:13;;;;;;;17.03;15.10;;;17.10;99.90;;;;;;5032301;28;20467;-69
2022/11/02 11:20:42;;;;;;;16.30;14.80;;;17.40;99.90;;;;;;5031607;28;20468;-70
2022/11/02 11:23:18;;;;;;;15.87;14.57;;;17.60;99.90;;;;;;5032092;28;20570;-69
2022/11/02 11:25:59;;;;;;;17.17;15.97;;;17.80;99.90;;;;;;5027568;28;20468;-70
2022/11/02 11:28:29;;;;;;;16.67;15.30;;;17.70;99.90;;;;;;5032871;28;20511;-69
2022/11/02 11:31:13;;;;;;;15.77;14.60;;;17.70;99.90;;;;;;5029821;28;20465;-69
2022/11/02 11:33:45;;;;;;;17.97;15.50;;;18.20;99.90;;;;;;5030119;28;21048;-70
2022/11/02 11:36:25;;;;;;;18.63;16.80;;;18.40;99.90;;;;;;5033488;28;20464;-69
2022/11/02 11:38:54;;;;;;;17.47;16.10;;;18.20;99.90;;;;;;5031870;28;20834;-69
2022/11/02 11:41:24;;;;;;;17.27;16.03;;;17.60;99.90;;;;;;5031759;28;20460;-69
2022/11/02 11:43:52;;;;;;;23.23;16.20;;;17.70;99.90;;;;;;5030448;28;20553;-69
2022/11/02 11:46:19;;;;;;;17.73;16.10;;;18.10;99.90;;;;;;5028096;28;20472;-69
2022/11/02 11:48:49;;;;;;;18.37;15.87;;;18.40;99.90;;;;;;5034037;28;20819;-68
2022/11/02 11:51:29;;;;;;;19.27;17.17;;;18.10;99.90;;;;;;5031482;28;20903;-70
2022/11/02 11:54:16;;;;;;;18.20;16.53;;;17.90;99.90;;;;;;5032283;28;20460;-69
2022/11/02 11:56:46;;;;;;;17.10;15.40;;;17.80;99.90;;;;;;5031825;28;20460;-68
2022/11/02 11:59:20;;;;;;;18.23;16.57;;;18.00;99.90;;;;;;5034629;28;20488;-68
2022/11/02 12:01:48;;;;;;;18.47;16.60;;;17.80;99.90;;;;;;5027415;28;20492;-68
2022/11/02 12:04:27;;;;;;;18.20;16.57;;;18.00;99.90;;;;;;5029963;28;20952;-68
2022/11/02 12:07:06;;;;;;;18.53;16.83;;;18.30;99.90;;;;;;5030792;28;20459;-69
2022/11/02 12:09:40;;;;;;;17.67;16.37;;;18.90;99.90;;;;;;5031516;28;20464;-68
2022/11/02 12:12:16;;;;;;;17.67;16.13;;;19.50;99.90;;;;;;5030510;28;20464;-68
2022/11/02 12:14:54;;;;;;;18.57;16.97;;;19.00;99.90;;;;;;5029931;28;20978;-68
2022/11/02 12:17:42;;;;;;;17.73;15.97;;;18.30;99.90;;;;;;5030459;28;20475;-68
2022/11/02 12:20:22;;;;;;;17.80;16.20;;;18.80;99.90;;;;;;5033673;28;20520;-68
2022/11/02 12:22:57;;;;;;;18.20;16.60;;;18.80;99.90;;;;;;5030132;28;20463;-68
2022/11/02 12:25:36;;;;;;;17.40;16.00;;;18.90;99.90;;;;;;5030058;28;20468;-68
2022/11/02 12:28:18;;;;;;;18.10;16.50;;;19.00;99.90;;;;;;5029011;28;20483;-69
2022/11/02 12:30:57;;;;;;;17.80;16.40;;;19.10;99.90;;;;;;5030164;28;20460;-68
2022/11/02 12:33:40;;;;;;;16.87;15.50;;;19.60;99.90;;;;;;5030243;28;20488;-68
2022/11/02 12:36:19;;;;;;;16.10;15.03;;;19.20;99.90;;;;;;5032774;28;20492;-68
2022/11/02 12:38:52;;;;;;;17.20;16.00;;;18.70;99.90;;;;;;5031120;28;21003;-70
2022/11/02 12:41:36;;;;;;;21.30;16.20;;;18.30;99.90;;;;;;5034614;28;20460;-68
2022/11/02 12:44:22;;;;;;;17.43;14.73;;;18.10;99.90;;;;;;5032300;28;20475;-68
2022/11/02 12:46:59;;;;;;;16.67;15.10;;;18.30;99.90;;;;;;5030309;28;20463;-68
2022/11/02 12:49:40;;;;;;;16.10;14.83;;;19.00;99.90;;;;;;5031828;28;20460;-69
2022/11/02 12:52:18;;;;;;;16.80;15.50;;;19.50;99.90;;;;;;5027902;28;20467;-68
2022/11/02 12:54:48;;;;;;;19.00;15.00;;;19.40;99.90;;;;;;5030917;28;20472;-68
2022/11/02 12:57:17;;;;;;;16.97;15.50;;;19.90;99.90;;;;;;5028629;28;20464;-68
2022/11/02 12:59:49;;;;;;;17.23;15.47;;;19.80;99.90;;;;;;5025252;28;20492;-68
2022/11/02 13:02:23;;;;;;;17.00;14.80;;;19.80;99.90;;;;;;5024160;28;20461;-68